Time;durP1;ratioP1;P1;durP2;ratioP2;P2;SDS_P1;SDS_P2;PMS_P1;PMS_P2;Temp;Humidity;BMP_temperature;BMP_pressure;BME280_temperature;BME280_humidity;BME280_pressure;Samples;Min_cycle;Max_cycle;Signal;HPM_P1;HPM_P2
2021/08/10 00:00:01;;;;;;;3.70;2.70;;;15.70;99.90;;;;;;5051050;28;20423;-78
2021/08/10 00:02:37;;;;;;;3.67;3.10;;;15.80;99.90;;;;;;5050620;28;20486;-77
2021/08/10 00:05:08;;;;;;;4.50;2.50;;;15.90;99.90;;;;;;5049501;28;20869;-78
2021/08/10 00:07:38;;;;;;;4.47;2.87;;;15.90;99.90;;;;;;5049486;28;20482;-77
2021/08/10 00:10:07;;;;;;;4.10;2.20;;;15.90;99.90;;;;;;5050833;28;20955;-77
2021/08/10 00:12:35;;;;;;;4.80;3.00;;;16.00;99.90;;;;;;5049679;28;20569;-76
2021/08/10 00:15:04;;;;;;;2.73;1.97;;;16.10;99.90;;;;;;5049506;28;20420;-75
2021/08/10 00:17:32;;;;;;;5.30;2.17;;;16.10;99.90;;;;;;5050298;28;20473;-77
2021/08/10 00:20:01;;;;;;;2.60;2.40;;;15.90;99.90;;;;;;5050707;28;20422;-76
2021/08/10 00:22:29;;;;;;;4.03;2.80;;;15.80;99.90;;;;;;5050322;28;20512;-76
2021/08/10 00:24:58;;;;;;;3.60;2.53;;;15.80;99.90;;;;;;5050263;28;20390;-76
2021/08/10 00:27:27;;;;;;;4.33;2.30;;;15.80;99.90;;;;;;5050216;28;20428;-78
2021/08/10 00:29:55;;;;;;;2.97;2.50;;;15.90;99.90;;;;;;5049074;28;20831;-76
2021/08/10 00:32:23;;;;;;;7.27;2.73;;;15.90;99.90;;;;;;5048553;28;20474;-76
2021/08/10 00:34:53;;;;;;;3.27;2.37;;;15.80;99.90;;;;;;5050365;28;20941;-76
2021/08/10 00:37:22;;;;;;;3.30;2.37;;;15.80;99.90;;;;;;5050317;28;20423;-79
2021/08/10 00:39:52;;;;;;;4.20;2.77;;;15.80;99.90;;;;;;5048210;28;20439;-76
2021/08/10 00:42:21;;;;;;;2.90;2.00;;;15.60;99.90;;;;;;5049189;28;20463;-76
2021/08/10 00:44:50;;;;;;;3.37;2.50;;;15.60;99.90;;;;;;5048983;28;20560;-77
2021/08/10 00:47:19;;;;;;;3.33;2.70;;;15.40;99.90;;;;;;5049067;28;20956;-78
2021/08/10 00:49:47;;;;;;;2.70;2.50;;;15.50;99.90;;;;;;5048570;28;20458;-76
2021/08/10 00:52:17;;;;;;;4.27;2.67;;;15.50;99.90;;;;;;5048546;28;20490;-79
2021/08/10 00:54:45;;;;;;;3.47;2.67;;;15.50;99.90;;;;;;5048493;28;20441;-78
2021/08/10 00:57:15;;;;;;;4.23;3.40;;;15.30;99.90;;;;;;5048548;28;20473;-82
2021/08/10 00:59:45;;;;;;;7.93;4.77;;;15.40;99.90;;;;;;5048553;28;20423;-76
2021/08/10 01:02:13;;;;;;;3.50;2.27;;;15.40;99.90;;;;;;5049140;28;20940;-79
2021/08/10 01:04:43;;;;;;;5.27;4.70;;;15.40;99.90;;;;;;5049974;28;20434;-79
2021/08/10 01:07:19;;;;;;;3.83;3.17;;;15.60;99.90;;;;;;5050341;28;20467;-76
2021/08/10 01:09:55;;;;;;;3.40;2.73;;;15.60;99.90;;;;;;5048568;28;20568;-76
2021/08/10 01:12:28;;;;;;;3.17;2.87;;;15.70;99.90;;;;;;5048534;28;20474;-76
2021/08/10 01:15:04;;;;;;;2.17;2.00;;;15.60;99.90;;;;;;5048184;28;20450;-76
2021/08/10 01:17:39;;;;;;;4.00;2.77;;;15.60;99.90;;;;;;5048504;28;20457;-76
2021/08/10 01:20:45;;;;;;;5.50;4.60;;;15.70;99.90;;;;;;5048389;28;20943;-77
2021/08/10 01:23:17;;;;;;;5.57;3.90;;;15.60;99.90;;;;;;5046223;28;20855;-76
2021/08/10 01:25:58;;;;;;;3.60;3.20;;;15.70;99.90;;;;;;5047978;28;20469;-76
2021/08/10 01:28:50;;;;;;;2.50;2.17;;;15.60;99.90;;;;;;5049130;28;20406;-80
2021/08/10 01:31:25;;;;;;;4.63;2.83;;;15.70;99.90;;;;;;5048430;28;20993;-77
2021/08/10 01:34:02;;;;;;;3.13;2.30;;;15.80;99.90;;;;;;5048491;28;20478;-76
2021/08/10 01:36:34;;;;;;;2.93;2.40;;;15.80;99.90;;;;;;5047828;28;20434;-75
2021/08/10 01:39:03;;;;;;;3.37;2.80;;;15.70;99.90;;;;;;5048184;28;20461;-75
2021/08/10 01:41:39;;;;;;;3.13;2.93;;;15.60;99.90;;;;;;5048122;28;20466;-77
2021/08/10 01:44:09;;;;;;;3.20;2.37;;;15.60;99.90;;;;;;5048606;28;20424;-76
2021/08/10 01:46:41;;;;;;;4.60;2.30;;;15.60;99.90;;;;;;5048579;28;20793;-79
2021/08/10 01:49:11;;;;;;;4.20;3.10;;;15.50;99.90;;;;;;5049816;28;20939;-77
2021/08/10 01:51:42;;;;;;;6.53;2.23;;;15.50;99.90;;;;;;5051242;28;20463;-76
2021/08/10 01:54:13;;;;;;;4.03;2.37;;;15.50;99.90;;;;;;5054011;28;20988;-76
2021/08/10 01:56:42;;;;;;;4.10;2.93;;;15.80;99.90;;;;;;5053223;28;20455;-76
2021/08/10 01:59:14;;;;;;;2.30;2.10;;;15.80;99.90;;;;;;5052367;28;20457;-77
2021/08/10 02:01:44;;;;;;;3.07;2.67;;;15.80;99.90;;;;;;5052277;28;20472;-76
2021/08/10 02:04:19;;;;;;;3.40;2.30;;;15.90;99.90;;;;;;5052456;28;20792;-79
2021/08/10 02:06:52;;;;;;;3.40;2.50;;;15.80;99.90;;;;;;5051912;28;20434;-77
2021/08/10 02:09:23;;;;;;;3.70;3.03;;;15.90;99.90;;;;;;5052395;28;20471;-77
2021/08/10 02:11:54;;;;;;;3.80;3.00;;;15.90;99.90;;;;;;5051894;28;20495;-80
2021/08/10 02:14:27;;;;;;;7.13;3.63;;;15.80;99.90;;;;;;5051925;28;20474;-77
2021/08/10 02:17:08;;;;;;;4.27;2.77;;;15.90;99.90;;;;;;5051758;28;20451;-79
2021/08/10 02:19:45;;;;;;;2.90;2.40;;;16.00;99.90;;;;;;5051800;28;20434;-76
2021/08/10 02:22:15;;;;;;;2.50;2.23;;;16.00;99.90;;;;;;5051423;28;20461;-76
2021/08/10 02:24:52;;;;;;;4.90;2.80;;;15.90;99.90;;;;;;5052028;28;20952;-75
2021/08/10 02:27:27;;;;;;;6.00;3.10;;;15.70;99.90;;;;;;5053044;28;20389;-75
2021/08/10 02:29:57;;;;;;;3.37;3.07;;;15.60;99.90;;;;;;5052923;28;20404;-77
2021/08/10 02:32:31;;;;;;;2.67;2.47;;;15.60;99.90;;;;;;5051876;28;20446;-79
2021/08/10 02:35:01;;;;;;;3.63;3.33;;;15.50;99.90;;;;;;5051791;28;21011;-77
2021/08/10 02:37:32;;;;;;;2.57;1.73;;;15.70;99.90;;;;;;5051512;28;20442;-77
2021/08/10 02:40:09;;;;;;;4.03;3.30;;;15.70;99.90;;;;;;5052091;28;20455;-79
2021/08/10 02:42:51;;;;;;;2.60;2.40;;;15.80;99.90;;;;;;5051752;28;20834;-76
2021/08/10 02:45:21;;;;;;;3.73;3.00;;;15.90;99.90;;;;;;5051959;28;20451;-79
2021/08/10 02:47:55;;;;;;;3.50;2.90;;;15.80;99.90;;;;;;5052781;28;20913;-77
2021/08/10 02:50:28;;;;;;;4.93;4.33;;;15.80;99.90;;;;;;5051610;28;20441;-76
2021/08/10 02:52:56;;;;;;;2.83;2.00;;;15.90;99.90;;;;;;5053208;28;20799;-77
2021/08/10 02:55:29;;;;;;;4.67;2.50;;;16.00;99.90;;;;;;5052959;28;20441;-76
2021/08/10 02:58:00;;;;;;;3.03;2.23;;;16.00;99.90;;;;;;5053822;28;20917;-76
2021/08/10 03:00:35;;;;;;;3.70;2.53;;;15.80;99.90;;;;;;5052353;28;20551;-76
2021/08/10 03:03:10;;;;;;;3.20;2.90;;;15.70;99.90;;;;;;5052113;28;20445;-77
2021/08/10 03:05:43;;;;;;;3.10;2.60;;;15.70;99.90;;;;;;5051020;28;20443;-76
2021/08/10 03:08:20;;;;;;;3.10;2.60;;;15.80;99.90;;;;;;5052276;28;20469;-79
2021/08/10 03:10:52;;;;;;;4.00;2.27;;;15.90;99.90;;;;;;5050892;28;20457;-78
2021/08/10 03:13:24;;;;;;;2.70;2.30;;;15.80;99.90;;;;;;5050735;28;20436;-76
2021/08/10 03:15:56;;;;;;;3.30;3.00;;;15.60;99.90;;;;;;5050798;28;20768;-76
2021/08/10 03:18:30;;;;;;;4.10;2.77;;;15.80;99.90;;;;;;5051123;28;20438;-76
2021/08/10 03:20:59;;;;;;;5.23;3.10;;;15.80;99.90;;;;;;5050770;28;20527;-77
2021/08/10 03:23:33;;;;;;;3.20;2.90;;;15.90;99.90;;;;;;5050422;28;20509;-78
2021/08/10 03:26:04;;;;;;;2.93;2.10;;;15.80;99.90;;;;;;5050247;28;20467;-80
2021/08/10 03:28:39;;;;;;;4.10;3.20;;;15.90;99.90;;;;;;5050637;28;20422;-76
2021/08/10 03:31:09;;;;;;;3.63;3.33;;;15.90;99.90;;;;;;5050406;28;21052;-78
2021/08/10 03:33:41;;;;;;;3.33;3.03;;;15.90;99.90;;;;;;5050277;28;20804;-75
2021/08/10 03:36:11;;;;;;;2.73;2.20;;;15.90;99.90;;;;;;5049699;28;20435;-75
2021/08/10 03:38:40;;;;;;;2.73;2.50;;;15.80;99.90;;;;;;5051537;28;20434;-77
2021/08/10 03:41:09;;;;;;;3.47;2.63;;;16.10;99.90;;;;;;5049827;28;20436;-80
2021/08/10 03:43:38;;;;;;;4.57;3.00;;;16.20;99.90;;;;;;5049934;28;20871;-75
2021/08/10 03:46:08;;;;;;;6.03;2.90;;;16.40;99.90;;;;;;5050975;28;20408;-75
2021/08/10 03:48:43;;;;;;;4.93;2.67;;;16.40;99.90;;;;;;5050297;28;20496;-77
2021/08/10 03:51:15;;;;;;;4.13;2.10;;;16.40;99.90;;;;;;5051274;28;20417;-76
2021/08/10 03:53:44;;;;;;;3.13;2.83;;;16.50;99.90;;;;;;5050010;28;20451;-76
2021/08/10 03:56:17;;;;;;;4.20;3.27;;;16.60;99.90;;;;;;5049411;28;20445;-76
2021/08/10 03:58:49;;;;;;;3.27;2.93;;;16.50;99.90;;;;;;5049605;28;21007;-76
2021/08/10 04:01:22;;;;;;;3.37;3.07;;;16.50;99.90;;;;;;5049420;28;20473;-76
2021/08/10 04:03:57;;;;;;;3.23;2.83;;;16.40;99.90;;;;;;5051117;28;20519;-75
2021/08/10 04:06:28;;;;;;;3.83;3.50;;;16.50;99.90;;;;;;5049105;28;20517;-76
2021/08/10 04:09:02;;;;;;;5.13;3.53;;;16.50;99.90;;;;;;5049740;28;20442;-80
2021/08/10 04:11:33;;;;;;;2.60;2.40;;;16.30;99.90;;;;;;5049486;28;20941;-75
2021/08/10 04:14:07;;;;;;;3.73;3.10;;;16.60;99.90;;;;;;5049448;28;20953;-77
2021/08/10 04:16:45;;;;;;;10.00;3.10;;;17.40;99.90;;;;;;5048976;28;20467;-77
2021/08/10 04:19:15;;;;;;;4.67;3.30;;;18.10;99.90;;;;;;5049502;28;20421;-77
2021/08/10 04:21:47;;;;;;;3.87;2.20;;;18.80;99.90;;;;;;5049742;28;20429;-76
2021/08/10 04:24:15;;;;;;;2.97;2.67;;;19.30;99.90;;;;;;5049407;28;20443;-78
2021/08/10 04:26:43;;;;;;;4.37;2.40;;;19.90;94.90;;;;;;5050116;28;20383;-78
2021/08/10 04:29:14;;;;;;;2.93;2.47;;;20.50;81.10;;;;;;5049276;28;20505;-76
2021/08/10 04:31:43;;;;;;;4.43;2.83;;;21.00;56.20;;;;;;5049415;28;20939;-76
2021/08/10 04:34:12;;;;;;;6.00;2.90;;;21.40;49.00;;;;;;5050052;28;20520;-80
2021/08/10 04:36:42;;;;;;;3.00;2.23;;;21.80;38.30;;;;;;5049306;28;20444;-75
2021/08/10 04:39:10;;;;;;;3.47;2.90;;;22.00;31.50;;;;;;5049487;28;20414;-77
2021/08/10 04:41:38;;;;;;;4.30;2.27;;;22.20;28.20;;;;;;5049448;28;20985;-77
2021/08/10 04:44:09;;;;;;;2.93;2.50;;;22.60;23.50;;;;;;5048873;28;20773;-77
2021/08/10 04:46:38;;;;;;;1.70;1.40;;;22.80;22.00;;;;;;5049675;28;21003;-77
2021/08/10 04:49:07;;;;;;;2.33;2.13;;;22.90;20.40;;;;;;5048694;28;20469;-76
2021/08/10 04:51:35;;;;;;;2.67;2.47;;;23.30;16.50;;;;;;5050403;28;20453;-75
2021/08/10 04:54:05;;;;;;;2.70;2.27;;;23.60;16.10;;;;;;5048704;28;20447;-75
2021/08/10 04:56:33;;;;;;;3.90;2.50;;;24.10;13.40;;;;;;5048022;28;20534;-75
2021/08/10 04:59:01;;;;;;;2.90;2.63;;;24.00;11.60;;;;;;5048602;28;20514;-75
2021/08/10 05:01:30;;;;;;;2.57;2.27;;;24.60;9.10;;;;;;5048916;28;20458;-75
2021/08/10 05:03:59;;;;;;;2.30;2.00;;;25.00;7.30;;;;;;5048780;28;20493;-76
2021/08/10 05:06:27;;;;;;;4.83;2.87;;;25.80;4.70;;;;;;5048728;28;20723;-76
2021/08/10 05:08:56;;;;;;;2.70;2.20;;;26.50;1.90;;;;;;5048311;28;20499;-76
2021/08/10 05:11:25;;;;;;;3.07;2.43;;;27.00;1.00;;;;;;5048541;28;20461;-76
2021/08/10 05:13:54;;;;;;;2.97;2.33;;;27.10;1.00;;;;;;5048514;28;20414;-74
2021/08/10 05:16:23;;;;;;;3.17;2.40;;;27.40;1.00;;;;;;5048195;28;20454;-78
2021/08/10 05:18:52;;;;;;;3.13;2.67;;;27.80;1.00;;;;;;5047976;28;20777;-79
2021/08/10 05:21:21;;;;;;;2.63;2.40;;;28.00;1.00;;;;;;5048348;28;20442;-75
2021/08/10 05:23:57;;;;;;;4.23;2.90;;;28.20;1.00;;;;;;5048184;28;20434;-79
2021/08/10 05:26:26;;;;;;;2.60;2.23;;;28.20;1.00;;;;;;5048821;28;20477;-77
2021/08/10 05:28:57;;;;;;;3.37;2.57;;;27.20;1.00;;;;;;5048345;28;20400;-76
2021/08/10 05:31:26;;;;;;;2.63;2.43;;;25.10;1.00;;;;;;5048491;28;20447;-76
2021/08/10 05:33:54;;;;;;;3.37;3.03;;;23.20;6.10;;;;;;5048715;28;20535;-75
2021/08/10 05:36:22;;;;;;;5.33;3.40;;;21.70;16.30;;;;;;5048807;28;20502;-76
2021/08/10 05:38:53;;;;;;;4.00;3.60;;;20.70;36.40;;;;;;5048954;28;20467;-76
2021/08/10 05:41:22;;;;;;;3.47;3.17;;;19.90;66.30;;;;;;5053339;28;20811;-77
2021/08/10 05:43:52;;;;;;;5.50;3.17;;;19.50;90.50;;;;;;5055088;28;20797;-76
2021/08/10 05:46:20;;;;;;;3.33;3.03;;;19.00;96.00;;;;;;5056710;28;20443;-78
2021/08/10 05:48:48;;;;;;;3.87;2.90;;;19.10;99.90;;;;;;5054774;28;20539;-76
2021/08/10 05:51:18;;;;;;;7.20;3.23;;;19.00;99.90;;;;;;5054699;28;20459;-75
2021/08/10 05:53:46;;;;;;;4.30;3.30;;;18.80;99.90;;;;;;5049689;28;20461;-75
2021/08/10 05:56:19;;;;;;;6.27;3.43;;;18.80;99.90;;;;;;5064445;22;20978;-83
2021/08/10 05:58:48;;;;;;;4.77;3.20;;;18.80;99.90;;;;;;5058315;28;20509;-82
2021/08/10 06:01:18;;;;;;;5.27;3.67;;;18.70;99.90;;;;;;5060223;28;20488;-81
2021/08/10 06:03:47;;;;;;;4.13;3.33;;;18.80;99.90;;;;;;5061842;28;20463;-82
2021/08/10 06:06:21;;;;;;;9.00;3.60;;;18.80;99.90;;;;;;5059804;28;20929;-83
2021/08/10 06:08:52;;;;;;;3.73;3.30;;;18.90;99.90;;;;;;5056973;28;20441;-83
2021/08/10 06:11:22;;;;;;;4.70;3.80;;;18.80;99.90;;;;;;5054170;28;20458;-82
2021/08/10 06:13:51;;;;;;;4.10;3.00;;;18.90;99.90;;;;;;5065598;28;20438;-81
2021/08/10 06:16:20;;;;;;;2.93;2.33;;;19.00;99.90;;;;;;5070277;28;20466;-82
2021/08/10 06:18:49;;;;;;;5.13;3.40;;;19.00;99.90;;;;;;5072681;28;20469;-82
2021/08/10 06:21:23;;;;;;;3.90;3.10;;;19.10;99.50;;;;;;5070280;28;20465;-82
2021/08/10 06:23:51;;;;;;;3.23;2.93;;;19.00;99.10;;;;;;5072517;28;20446;-80
2021/08/10 06:26:21;;;;;;;4.20;3.20;;;19.20;97.60;;;;;;5071835;28;20431;-82
2021/08/10 06:28:51;;;;;;;3.60;2.50;;;19.10;97.10;;;;;;5070009;28;20443;-82
2021/08/10 06:31:21;;;;;;;3.77;2.63;;;19.30;97.40;;;;;;5070180;28;20508;-82
2021/08/10 06:33:54;;;;;;;4.37;2.60;;;19.50;96.90;;;;;;5072995;28;20613;-81
2021/08/10 06:36:26;;;;;;;3.00;2.40;;;19.80;94.70;;;;;;5074253;28;20481;-81
2021/08/10 06:38:54;;;;;;;2.90;2.60;;;19.90;92.00;;;;;;5075875;28;20398;-81
2021/08/10 06:41:23;;;;;;;3.13;2.80;;;20.10;83.90;;;;;;5078114;28;20398;-81
2021/08/10 06:44:06;;;;;;;2.43;2.00;;;20.20;72.40;;;;;;5077369;28;20419;-82
2021/08/10 06:46:40;;;;;;;3.40;2.10;;;20.10;72.10;;;;;;5077973;28;20457;-82
2021/08/10 06:49:11;;;;;;;5.60;2.67;;;20.10;73.10;;;;;;5076943;28;20406;-82
2021/08/10 06:51:40;;;;;;;4.07;2.93;;;20.20;75.10;;;;;;5077480;28;20405;-82
2021/08/10 06:54:12;;;;;;;4.40;2.60;;;20.60;60.70;;;;;;5077469;28;20400;-80
2021/08/10 06:56:47;;;;;;;2.47;2.27;;;21.10;56.10;;;;;;5076854;28;20457;-81
2021/08/10 06:59:19;;;;;;;2.67;2.10;;;21.50;42.00;;;;;;5075826;28;20413;-84
2021/08/10 07:01:50;;;;;;;2.93;2.33;;;21.70;35.60;;;;;;5072611;28;20439;-83
2021/08/10 07:04:19;;;;;;;2.63;2.30;;;22.10;30.60;;;;;;5077351;28;20458;-82
2021/08/10 07:06:49;;;;;;;3.50;2.40;;;22.30;26.20;;;;;;5072498;28;20410;-82
2021/08/10 07:09:24;;;;;;;4.10;2.80;;;22.10;28.60;;;;;;5072831;28;20449;-82
2021/08/10 07:11:54;;;;;;;5.00;2.20;;;22.00;23.90;;;;;;5072529;28;20493;-83
2021/08/10 07:14:22;;;;;;;1.93;1.73;;;21.80;25.00;;;;;;5070540;28;20427;-81
2021/08/10 07:16:52;;;;;;;3.10;2.00;;;21.80;24.70;;;;;;5076164;28;20441;-82
2021/08/10 07:19:21;;;;;;;2.50;2.17;;;21.70;26.00;;;;;;5076313;28;20412;-81
2021/08/10 07:21:52;;;;;;;3.37;2.20;;;21.90;24.10;;;;;;5078123;28;20405;-81
2021/08/10 07:25:06;;;;;;;3.40;2.43;;;22.10;23.10;;;;;;5077483;28;20398;-81
2021/08/10 07:27:35;;;;;;;2.63;2.00;;;22.40;23.50;;;;;;5074661;28;20418;-81
2021/08/10 07:30:05;;;;;;;2.97;2.67;;;22.10;24.80;;;;;;5077620;28;20485;-82
2021/08/10 07:32:37;;;;;;;3.00;1.83;;;22.10;23.40;;;;;;5067193;28;20483;-81
2021/08/10 07:35:08;;;;;;;6.00;2.40;;;22.00;27.40;;;;;;5060402;28;20435;-82
2021/08/10 07:37:40;;;;;;;3.87;2.40;;;21.90;25.40;;;;;;5061335;28;20479;-83
2021/08/10 07:40:14;;;;;;;2.90;2.10;;;21.80;26.90;;;;;;5061890;28;20434;-82
2021/08/10 07:42:47;;;;;;;5.10;2.47;;;21.90;25.30;;;;;;5059185;28;20489;-82
2021/08/10 07:45:20;;;;;;;3.47;2.13;;;21.90;27.10;;;;;;5058884;28;20457;-82
2021/08/10 07:47:50;;;;;;;3.60;2.40;;;22.00;26.80;;;;;;5058719;28;20428;-83
2021/08/10 07:50:20;;;;;;;3.30;2.90;;;22.10;24.80;;;;;;5057417;28;20964;-81
2021/08/10 07:52:52;;;;;;;8.03;4.93;;;22.40;25.40;;;;;;5058972;28;20446;-83
2021/08/10 07:55:23;;;;;;;3.33;2.63;;;22.60;23.00;;;;;;5059428;28;20418;-82
2021/08/10 07:57:52;;;;;;;3.13;2.83;;;22.60;23.90;;;;;;5063509;28;20449;-82
2021/08/10 08:00:21;;;;;;;3.73;2.73;;;22.80;22.60;;;;;;5065641;28;20435;-83
2021/08/10 08:02:52;;;;;;;3.13;2.20;;;23.00;20.20;;;;;;5065806;28;20467;-82
2021/08/10 08:08:42;;;;;;;3.10;2.70;;;22.80;20.60;;;;;;5060814;28;20426;-84
2021/08/10 08:11:42;;;;;;;3.03;2.10;;;22.90;20.50;;;;;;5061686;28;21009;-84
2021/08/10 08:14:59;;;;;;;6.40;2.70;;;22.80;20.20;;;;;;5063586;28;20442;-82
2021/08/10 08:17:37;;;;;;;3.10;2.53;;;22.80;22.80;;;;;;5061754;28;20463;-83
2021/08/10 08:20:19;;;;;;;5.43;2.70;;;22.70;21.40;;;;;;5066370;28;20497;-83
2021/08/10 08:22:50;;;;;;;4.10;2.80;;;22.40;23.70;;;;;;5065808;28;20434;-83
2021/08/10 08:25:19;;;;;;;2.83;2.60;;;22.30;27.20;;;;;;5070166;28;20414;-81
2021/08/10 08:27:48;;;;;;;4.17;2.83;;;22.10;26.90;;;;;;5069548;28;20435;-83
2021/08/10 08:30:18;;;;;;;7.00;3.27;;;22.10;27.30;;;;;;5067284;28;20477;-82
2021/08/10 08:32:47;;;;;;;5.60;3.07;;;21.70;31.30;;;;;;5066163;28;20462;-83
2021/08/10 08:35:18;;;;;;;3.13;2.40;;;21.50;31.30;;;;;;5069050;28;20431;-82
2021/08/10 08:37:47;;;;;;;4.47;3.00;;;21.50;31.20;;;;;;5067266;28;20465;-83
2021/08/10 08:40:18;;;;;;;3.37;2.20;;;21.60;31.00;;;;;;5067999;28;20444;-83
2021/08/10 08:42:46;;;;;;;4.50;3.23;;;21.70;30.40;;;;;;5065322;28;20516;-83
2021/08/10 08:45:16;;;;;;;4.10;3.30;;;21.60;36.10;;;;;;5064936;28;20474;-83
2021/08/10 08:47:50;;;;;;;4.50;2.50;;;21.70;35.80;;;;;;5064415;28;20410;-83
2021/08/10 08:50:26;;;;;;;4.63;3.13;;;22.00;37.10;;;;;;5063492;28;20470;-83
2021/08/10 08:53:00;;;;;;;4.67;2.83;;;22.30;30.70;;;;;;5064074;28;20486;-83
2021/08/10 08:55:57;;;;;;;2.90;2.43;;;22.40;29.30;;;;;;5065751;28;20414;-83
2021/08/10 08:59:03;;;;;;;3.97;2.20;;;22.70;24.10;;;;;;5063411;28;20445;-82
2021/08/10 09:01:39;;;;;;;4.03;2.50;;;23.00;20.50;;;;;;5062946;28;20406;-82
2021/08/10 09:04:12;;;;;;;5.83;2.47;;;23.30;17.50;;;;;;5065072;28;20477;-83
2021/08/10 09:06:48;;;;;;;4.90;2.77;;;23.50;16.60;;;;;;5063738;28;20429;-83
2021/08/10 09:09:23;;;;;;;3.20;2.37;;;23.60;14.90;;;;;;5063534;28;20414;-84
2021/08/10 09:11:59;;;;;;;4.27;2.60;;;23.50;15.60;;;;;;5062741;28;20506;-82
2021/08/10 09:14:45;;;;;;;6.90;2.90;;;23.20;15.90;;;;;;5061677;28;20424;-82
2021/08/10 09:17:19;;;;;;;6.90;2.83;;;23.20;16.30;;;;;;5056348;28;20454;-80
2021/08/10 09:19:52;;;;;;;3.53;2.87;;;23.10;16.90;;;;;;5057918;28;20443;-84
2021/08/10 09:22:27;;;;;;;4.80;2.70;;;23.00;19.30;;;;;;5062411;28;20486;-84
2021/08/10 09:25:16;;;;;;;3.53;2.80;;;23.20;17.10;;;;;;5058739;28;20448;-84
2021/08/10 09:28:06;;;;;;;3.90;2.80;;;23.30;16.90;;;;;;5057335;28;20509;-82
2021/08/10 09:30:46;;;;;;;5.13;2.60;;;23.70;16.10;;;;;;5057146;28;20420;-83
2021/08/10 09:33:18;;;;;;;4.73;2.77;;;24.00;14.60;;;;;;5064088;28;20453;-83
2021/08/10 09:35:51;;;;;;;3.40;2.37;;;24.20;12.90;;;;;;5063600;28;20514;-82
2021/08/10 09:38:22;;;;;;;3.53;2.67;;;24.50;12.60;;;;;;5062621;28;20494;-81
2021/08/10 09:40:53;;;;;;;3.93;3.10;;;24.60;9.60;;;;;;5064171;28;20470;-81
2021/08/10 09:43:28;;;;;;;6.47;2.83;;;24.60;7.90;;;;;;5059916;28;20455;-82
2021/08/10 09:46:14;;;;;;;4.00;2.80;;;24.80;8.10;;;;;;5061246;28;20401;-82
2021/08/10 09:48:53;;;;;;;4.40;2.43;;;25.10;6.50;;;;;;5057592;28;20435;-82
2021/08/10 09:51:24;;;;;;;2.93;1.70;;;25.30;4.60;;;;;;5055432;28;20874;-83
2021/08/10 09:54:00;;;;;;;4.97;2.27;;;25.60;2.60;;;;;;5054746;28;20438;-83
2021/08/10 09:56:40;;;;;;;4.50;2.70;;;25.50;3.90;;;;;;5054182;28;20461;-80
2021/08/10 09:59:09;;;;;;;3.23;2.13;;;25.50;5.00;;;;;;5053558;28;20493;-81
2021/08/10 10:01:39;;;;;;;3.53;2.23;;;25.50;3.70;;;;;;5054228;28;20790;-82
2021/08/10 10:04:10;;;;;;;4.97;2.00;;;25.40;3.10;;;;;;5057026;28;20438;-82
2021/08/10 10:06:44;;;;;;;3.63;2.70;;;25.60;3.10;;;;;;5053257;28;20461;-81
2021/08/10 10:09:16;;;;;;;4.07;2.83;;;25.40;4.20;;;;;;5058506;28;20494;-82
2021/08/10 10:11:49;;;;;;;7.63;2.67;;;25.40;4.20;;;;;;5061210;28;20945;-81
2021/08/10 10:14:22;;;;;;;4.00;2.93;;;25.10;4.70;;;;;;5062201;28;20962;-82
2021/08/10 10:16:53;;;;;;;4.90;1.83;;;24.60;5.00;;;;;;5062886;28;20431;-82
2021/08/10 10:19:22;;;;;;;3.70;2.10;;;24.10;7.80;;;;;;5063861;28;20406;-84
2021/08/10 10:21:53;;;;;;;4.90;2.30;;;23.90;7.70;;;;;;5068823;28;20471;-82
2021/08/10 10:24:25;;;;;;;3.27;2.37;;;24.00;8.90;;;;;;5071116;28;20397;-83
2021/08/10 10:26:57;;;;;;;2.47;2.23;;;24.30;9.10;;;;;;5067601;28;20466;-83
2021/08/10 10:29:27;;;;;;;4.73;2.50;;;24.30;6.70;;;;;;5067901;28;20446;-81
2021/08/10 10:32:19;;;;;;;2.90;2.60;;;23.90;8.00;;;;;;5069734;28;20414;-83
2021/08/10 10:34:56;;;;;;;2.60;1.97;;;23.70;8.40;;;;;;5064874;28;20439;-81
2021/08/10 10:37:26;;;;;;;3.40;2.33;;;23.70;9.30;;;;;;5068326;28;20504;-82
2021/08/10 10:40:02;;;;;;;2.87;2.17;;;23.70;10.50;;;;;;5067842;28;20485;-83
2021/08/10 10:42:31;;;;;;;3.87;2.83;;;23.50;11.40;;;;;;5068501;28;20441;-82
2021/08/10 10:45:00;;;;;;;5.10;2.87;;;23.40;11.90;;;;;;5066805;28;20439;-81
2021/08/10 10:47:38;;;;;;;4.47;2.73;;;23.40;13.20;;;;;;5064221;28;20485;-82
2021/08/10 10:50:18;;;;;;;3.70;2.33;;;23.60;11.20;;;;;;5064130;28;20413;-81
2021/08/10 10:53:09;;;;;;;4.60;2.07;;;23.80;9.60;;;;;;5062399;28;20490;-82
2021/08/10 10:55:42;;;;;;;4.03;2.40;;;23.80;10.00;;;;;;5064401;28;20432;-82
2021/08/10 10:58:37;;;;;;;4.50;2.40;;;23.90;9.90;;;;;;5065587;28;20438;-83
2021/08/10 11:01:23;;;;;;;3.33;2.63;;;23.80;9.30;;;;;;5068016;28;20401;-82
2021/08/10 11:04:13;;;;;;;2.47;1.90;;;23.70;9.30;;;;;;5066856;28;20471;-82
2021/08/10 11:06:45;;;;;;;3.13;2.60;;;23.70;9.20;;;;;;5070546;28;20472;-82
2021/08/10 11:10:01;;;;;;;4.93;2.60;;;23.70;9.90;;;;;;5067774;28;20440;-82
2021/08/10 11:12:44;;;;;;;4.90;2.87;;;23.60;11.60;;;;;;5069644;28;20413;-83
2021/08/10 11:15:18;;;;;;;4.37;2.70;;;23.20;11.70;;;;;;5068814;28;20499;-84
2021/08/10 11:18:26;;;;;;;7.10;2.53;;;22.90;13.40;;;;;;5068740;28;20438;-83
2021/08/10 11:21:24;;;;;;;2.40;2.03;;;23.10;13.30;;;;;;5068748;28;20506;-83
2021/08/10 11:23:58;;;;;;;2.90;2.00;;;23.50;11.80;;;;;;5068931;28;20518;-84
2021/08/10 11:26:57;;;;;;;4.10;2.60;;;23.90;10.10;;;;;;5069323;28;20428;-84
2021/08/10 11:29:56;;;;;;;1.83;1.53;;;24.80;8.00;;;;;;5068801;28;20433;-84
2021/08/10 11:32:44;;;;;;;3.20;2.77;;;25.50;4.50;;;;;;5069356;28;20459;-83
2021/08/10 11:35:32;;;;;;;2.30;2.10;;;25.40;5.00;;;;;;5070155;28;20411;-83
2021/08/10 11:38:17;;;;;;;2.60;1.77;;;25.80;3.70;;;;;;5069591;28;20491;-83
2021/08/10 11:40:58;;;;;;;6.33;2.73;;;25.80;3.50;;;;;;5069119;28;20442;-83
2021/08/10 11:43:38;;;;;;;4.70;2.13;;;25.40;3.20;;;;;;5069540;28;20478;-83
2021/08/10 11:46:19;;;;;;;3.10;1.87;;;24.70;3.90;;;;;;5069138;28;20419;-83
2021/08/10 11:48:49;;;;;;;2.60;2.10;;;24.30;6.10;;;;;;5070481;28;20386;-83
2021/08/10 11:52:05;;;;;;;2.30;2.10;;;24.30;5.70;;;;;;5070440;28;20404;-82
2021/08/10 11:55:11;;;;;;;6.30;2.50;;;24.20;6.90;;;;;;5069121;28;20446;-82
2021/08/10 11:57:58;;;;;;;2.90;2.00;;;24.40;6.20;;;;;;5098771;22;20473;-76
2021/08/10 12:00:28;;;;;;;2.70;2.10;;;24.30;7.10;;;;;;5056842;28;20759;-78
2021/08/10 12:02:58;;;;;;;3.00;2.47;;;24.60;6.90;;;;;;5045564;28;20476;-76
2021/08/10 12:05:28;;;;;;;3.10;2.80;;;24.70;5.80;;;;;;5033834;28;20948;-75
2021/08/10 12:07:58;;;;;;;4.03;2.87;;;24.80;6.40;;;;;;5039314;28;20424;-77
2021/08/10 12:10:33;;;;;;;4.60;2.30;;;25.40;4.50;;;;;;5037532;28;20462;-78
2021/08/10 12:13:06;;;;;;;3.13;2.20;;;25.50;3.60;;;;;;5035608;28;20960;-79
2021/08/10 12:15:45;;;;;;;3.53;2.63;;;25.40;3.80;;;;;;5041897;28;20411;-77
2021/08/10 12:18:17;;;;;;;3.50;2.20;;;25.30;5.70;;;;;;5039109;28;20547;-77
2021/08/10 12:20:57;;;;;;;4.70;2.63;;;25.20;6.40;;;;;;5057994;28;20800;-77
2021/08/10 12:23:26;;;;;;;5.80;2.33;;;25.00;5.70;;;;;;5038214;28;20428;-76
2021/08/10 12:25:54;;;;;;;4.77;2.40;;;25.20;5.00;;;;;;5038743;28;20428;-77
2021/08/10 12:28:22;;;;;;;2.80;2.60;;;24.70;6.30;;;;;;5035867;28;20527;-77
2021/08/10 12:30:51;;;;;;;7.03;3.40;;;24.50;7.80;;;;;;5033309;28;20469;-77
2021/08/10 12:33:22;;;;;;;3.83;2.90;;;24.50;7.60;;;;;;5032946;28;20424;-77
2021/08/10 12:35:58;;;;;;;4.40;3.73;;;24.90;7.80;;;;;;5033108;28;20420;-77
2021/08/10 12:38:27;;;;;;;4.13;2.63;;;25.60;6.30;;;;;;5047369;28;20471;-79
2021/08/10 12:40:56;;;;;;;4.17;3.10;;;26.20;3.40;;;;;;5032421;28;20448;-77
2021/08/10 12:43:26;;;;;;;5.00;2.20;;;26.50;3.40;;;;;;5036216;28;20452;-76
2021/08/10 12:45:54;;;;;;;4.20;2.90;;;26.60;3.60;;;;;;5032899;28;20475;-77
2021/08/10 12:48:32;;;;;;;2.80;2.40;;;26.80;1.60;;;;;;5032210;28;20424;-79
2021/08/10 12:51:03;;;;;;;2.57;2.37;;;27.00;1.00;;;;;;5030936;28;20459;-76
2021/08/10 12:53:33;;;;;;;3.30;2.40;;;27.00;1.00;;;;;;5032197;28;20815;-77
2021/08/10 12:56:03;;;;;;;4.87;2.77;;;27.00;1.00;;;;;;5031311;28;20531;-77
2021/08/10 12:58:33;;;;;;;3.33;2.77;;;26.80;1.00;;;;;;5033640;28;20435;-77
2021/08/10 13:01:04;;;;;;;3.70;3.40;;;26.30;1.00;;;;;;5032670;28;20999;-76
2021/08/10 13:03:34;;;;;;;3.07;2.67;;;26.00;1.50;;;;;;5030733;28;20440;-77
2021/08/10 13:06:04;;;;;;;4.97;2.90;;;25.30;4.00;;;;;;5030211;28;20942;-76
2021/08/10 13:08:32;;;;;;;1.93;1.63;;;25.40;5.20;;;;;;5032169;28;20442;-77
2021/08/10 13:11:03;;;;;;;3.10;2.47;;;25.70;3.10;;;;;;5034229;28;20444;-78
2021/08/10 13:13:32;;;;;;;2.53;2.20;;;25.90;1.60;;;;;;5031513;28;20434;-77
2021/08/10 13:16:03;;;;;;;14.23;9.70;;;26.10;1.00;;;;;;5031358;28;20420;-77
2021/08/10 13:18:34;;;;;;;4.03;2.93;;;26.30;1.00;;;;;;5031262;28;20447;-78
2021/08/10 13:21:05;;;;;;;3.57;2.20;;;26.20;1.00;;;;;;5031365;28;20447;-76
2021/08/10 13:23:35;;;;;;;2.63;2.07;;;25.90;1.00;;;;;;5044969;28;20503;-77
2021/08/10 13:26:05;;;;;;;3.50;2.60;;;26.30;1.00;;;;;;5029668;28;20402;-77